createdAt,value
2018-08-27T00:01:54.154Z,1.20
2018-08-27T00:04:57.375Z,1.13
2018-08-27T00:08:00.540Z,1.50
2018-08-27T00:11:03.836Z,1.50
2018-08-27T00:14:07.188Z,1.40
2018-08-27T00:17:10.339Z,1.50
2018-08-27T00:20:13.680Z,1.20
2018-08-27T00:23:16.922Z,1.30
2018-08-27T00:26:21.200Z,1.07
2018-08-27T00:29:24.456Z,1.07
2018-08-27T00:32:28.755Z,1.50
2018-08-27T00:35:35.545Z,1.10
2018-08-27T00:38:38.877Z,1.17
2018-08-27T00:41:42.141Z,1.17
2018-08-27T00:44:45.447Z,1.30
2018-08-27T00:47:48.792Z,1.30
2018-08-27T00:50:53.037Z,1.50
2018-08-27T00:53:56.408Z,1.50
2018-08-27T00:56:59.656Z,1.40
2018-08-27T01:00:03.100Z,1.30
2018-08-27T01:03:06.831Z,1.20
2018-08-27T01:06:10.042Z,1.20
2018-08-27T01:09:13.269Z,1.30
2018-08-27T01:12:16.584Z,1.20
2018-08-27T01:15:19.883Z,1.30
2018-08-27T01:18:23.956Z,1.60
2018-08-27T01:21:27.261Z,1.30
2018-08-27T01:24:31.515Z,1.20
2018-08-27T01:27:34.783Z,1.40
2018-08-27T01:30:38.083Z,1.10
2018-08-27T01:33:41.743Z,1.50
2018-08-27T01:36:46.270Z,1.27
2018-08-27T01:39:49.654Z,1.20
2018-08-27T01:42:53.257Z,1.30
2018-08-27T01:45:56.524Z,1.33
2018-08-27T01:48:59.834Z,1.40
2018-08-27T01:52:05.383Z,1.17
2018-08-27T01:55:08.661Z,1.10
2018-08-27T01:58:11.798Z,1.20
2018-08-27T02:01:15.290Z,1.20
2018-08-27T02:04:18.550Z,1.00
2018-08-27T02:07:23.950Z,1.17
2018-08-27T02:10:29.313Z,1.43
2018-08-27T02:13:32.579Z,1.53
2018-08-27T02:16:35.835Z,1.20
2018-08-27T02:19:39.183Z,1.40
2018-08-27T02:22:42.507Z,1.30
2018-08-27T02:25:45.762Z,1.30
2018-08-27T02:28:49.165Z,1.27
2018-08-27T02:31:52.565Z,1.60
2018-08-27T02:34:55.897Z,1.40
2018-08-27T02:37:59.190Z,1.57
2018-08-27T02:41:02.757Z,1.40
2018-08-27T02:44:06.045Z,1.50
2018-08-27T02:47:09.318Z,1.30
2018-08-27T02:50:12.638Z,1.40
2018-08-27T02:53:15.807Z,1.17
2018-08-27T02:56:19.140Z,1.50
2018-08-27T02:59:23.273Z,1.30
2018-08-27T03:02:26.616Z,1.70
2018-08-27T03:05:29.834Z,1.20
2018-08-27T03:08:33.007Z,1.40
2018-08-27T03:11:36.307Z,1.40
2018-08-27T03:14:39.527Z,1.60
2018-08-27T03:17:42.803Z,1.53
2018-08-27T03:20:46.001Z,1.30
2018-08-27T03:23:49.370Z,1.10
2018-08-27T03:26:53.643Z,1.30
2018-08-27T03:29:56.925Z,1.67
2018-08-27T03:33:00.254Z,1.30
2018-08-27T03:36:03.558Z,1.30
2018-08-27T03:39:10.136Z,1.20
2018-08-27T03:42:13.388Z,1.60
2018-08-27T03:45:16.687Z,1.50
2018-08-27T03:48:19.994Z,1.27
2018-08-27T03:51:23.314Z,1.33
2018-08-27T03:54:26.702Z,1.10
2018-08-27T03:57:30.018Z,1.30
2018-08-27T04:00:33.267Z,1.10
2018-08-27T04:03:36.599Z,1.20
2018-08-27T04:06:39.735Z,1.20
2018-08-27T04:09:43.091Z,1.30
2018-08-27T04:12:46.378Z,1.10
2018-08-27T04:15:49.584Z,1.37
2018-08-27T04:18:53.919Z,1.33
2018-08-27T04:21:57.173Z,1.30
2018-08-27T04:25:00.412Z,1.50
2018-08-27T04:28:03.667Z,1.13
2018-08-27T04:31:07.497Z,1.30
2018-08-27T04:34:10.742Z,1.50
2018-08-27T04:37:14.324Z,1.20
2018-08-27T04:40:17.565Z,1.50
2018-08-27T04:43:21.481Z,1.53
2018-08-27T04:46:24.830Z,1.60
2018-08-27T04:49:28.152Z,1.30
2018-08-27T04:52:31.423Z,1.40
2018-08-27T04:55:34.734Z,1.73
2018-08-27T04:58:43.254Z,1.10
2018-08-27T05:01:46.575Z,1.30
2018-08-27T05:04:50.788Z,1.60
2018-08-27T05:07:54.868Z,1.40
2018-08-27T05:10:58.169Z,1.47
2018-08-27T05:14:01.519Z,1.80
2018-08-27T05:17:07.987Z,1.70
2018-08-27T05:20:11.444Z,1.47
2018-08-27T05:23:14.784Z,1.70
2018-08-27T05:26:19.094Z,1.47
2018-08-27T05:29:22.932Z,1.40
2018-08-27T05:32:26.365Z,1.80
2018-08-27T05:35:29.652Z,1.30
2018-08-27T05:38:33.268Z,1.50
2018-08-27T05:41:36.488Z,2.80
2018-08-27T05:44:40.791Z,2.20
2018-08-27T05:47:44.149Z,1.80
2018-08-27T05:50:47.553Z,1.30
2018-08-27T05:53:50.857Z,1.50
2018-08-27T05:56:54.084Z,1.40
2018-08-27T05:59:57.341Z,1.67
2018-08-27T06:03:00.722Z,1.60
2018-08-27T06:06:04.030Z,1.50
2018-08-27T06:09:08.568Z,1.70
2018-08-27T06:12:11.767Z,1.60
2018-08-27T06:15:15.164Z,1.90
2018-08-27T06:18:18.479Z,1.60
2018-08-27T06:21:22.215Z,1.20
2018-08-27T06:24:25.506Z,1.47
2018-08-27T06:27:28.652Z,1.57
2018-08-27T06:30:33.034Z,1.43
2018-08-27T06:33:36.339Z,1.80
2018-08-27T06:36:41.720Z,1.90
2018-08-27T06:39:47.146Z,1.70
2018-08-27T06:42:50.437Z,1.60
2018-08-27T06:45:54.533Z,1.77
2018-08-27T06:48:57.805Z,1.40
2018-08-27T06:52:01.132Z,1.33
2018-08-27T06:55:04.924Z,1.60
2018-08-27T06:58:08.184Z,2.00
2018-08-27T07:01:11.536Z,1.80
2018-08-27T07:04:15.774Z,1.67
2018-08-27T07:07:19.160Z,1.57
2018-08-27T07:10:22.756Z,1.50
2018-08-27T07:13:25.988Z,1.50
2018-08-27T07:16:29.331Z,1.33
2018-08-27T07:19:32.629Z,1.60
2018-08-27T07:22:36.048Z,1.73
2018-08-27T07:25:39.253Z,1.57
2018-08-27T07:28:43.773Z,1.80
2018-08-27T07:31:46.961Z,1.57
2018-08-27T07:34:50.274Z,1.80
2018-08-27T07:37:53.563Z,1.53
2018-08-27T07:40:57.898Z,1.60
2018-08-27T07:44:03.232Z,1.60
2018-08-27T07:47:06.565Z,1.63
2018-08-27T07:50:09.883Z,1.70
2018-08-27T07:53:13.743Z,2.00
2018-08-27T07:56:17.011Z,1.80
2018-08-27T07:59:22.178Z,1.77
2018-08-27T08:02:25.570Z,2.00
2018-08-27T08:05:29.265Z,2.13
2018-08-27T08:08:32.541Z,1.80
2018-08-27T08:11:36.098Z,1.90
2018-08-27T08:14:39.398Z,1.73
2018-08-27T08:17:42.735Z,1.50
2018-08-27T08:20:47.837Z,1.97
2018-08-27T08:23:51.109Z,1.90
2018-08-27T08:26:54.388Z,1.50
2018-08-27T08:29:57.713Z,1.70
2018-08-27T08:33:02.692Z,1.77
2018-08-27T08:36:06.004Z,1.50
2018-08-27T08:39:09.349Z,1.50
2018-08-27T08:42:12.592Z,1.60
2018-08-27T08:45:16.858Z,1.40
2018-08-27T08:48:21.179Z,1.63
2018-08-27T08:51:24.537Z,1.70
2018-08-27T08:54:27.741Z,1.60
2018-08-27T08:57:30.967Z,1.63
2018-08-27T09:00:34.252Z,1.40
2018-08-27T09:03:37.594Z,1.33
2018-08-27T09:06:40.927Z,1.77
2018-08-27T09:09:45.188Z,1.47
2018-08-27T09:12:48.624Z,2.07
2018-08-27T09:15:52.195Z,1.60
2018-08-27T09:18:55.481Z,1.37
2018-08-27T09:21:58.666Z,1.70
2018-08-27T09:25:01.982Z,1.43
2018-08-27T09:28:05.281Z,1.33
2018-08-27T09:31:08.610Z,1.73
2018-08-27T09:34:11.982Z,1.67
2018-08-27T09:37:15.266Z,1.50
2018-08-27T09:40:18.512Z,1.40
2018-08-27T09:43:21.812Z,1.47
2018-08-27T09:46:25.058Z,1.43
2018-08-27T09:49:28.347Z,1.50
2018-08-27T09:52:31.620Z,1.57
2018-08-27T09:55:34.878Z,1.60
2018-08-27T09:58:38.092Z,1.50
2018-08-27T10:01:45.460Z,1.47
2018-08-27T10:04:48.816Z,1.70
2018-08-27T10:07:52.172Z,1.60
2018-08-27T10:10:55.384Z,1.70
2018-08-27T10:13:58.580Z,1.60
2018-08-27T10:17:01.900Z,1.50
2018-08-27T10:20:06.139Z,1.40
2018-08-27T10:23:09.404Z,1.60
2018-08-27T10:26:12.771Z,1.40
2018-08-27T10:29:16.908Z,1.50
2018-08-27T10:32:20.115Z,1.73
2018-08-27T10:35:29.071Z,1.70
2018-08-27T10:38:32.376Z,1.80
2018-08-27T10:41:35.919Z,1.50
2018-08-27T10:44:39.371Z,1.40
2018-08-27T10:47:42.669Z,1.77
2018-08-27T10:50:47.425Z,1.50
2018-08-27T10:53:50.674Z,1.60
2018-08-27T10:56:53.967Z,1.90
2018-08-27T10:59:57.622Z,1.60
2018-08-27T11:03:00.861Z,1.33
2018-08-27T11:06:05.076Z,1.60
2018-08-27T11:09:09.335Z,1.60
2018-08-27T11:12:12.594Z,1.60
2018-08-27T11:15:16.462Z,1.70
2018-08-27T11:18:19.711Z,1.80
2018-08-27T11:21:23.038Z,1.40
2018-08-27T11:24:26.190Z,1.80
2018-08-27T11:27:29.419Z,1.60
2018-08-27T11:30:32.714Z,1.70
2018-08-27T11:33:35.989Z,1.33
2018-08-27T11:36:39.214Z,1.60
2018-08-27T11:39:42.564Z,1.60
2018-08-27T11:42:47.017Z,1.87
2018-08-27T11:45:51.136Z,1.60
2018-08-27T11:48:54.420Z,1.50
2018-08-27T11:51:57.767Z,1.60
2018-08-27T11:55:01.561Z,1.70
2018-08-27T11:58:04.734Z,1.40
2018-08-27T12:01:08.552Z,1.63
2018-08-27T12:04:11.782Z,1.50
2018-08-27T12:07:15.690Z,1.97
2018-08-27T12:10:18.963Z,1.43
2018-08-27T12:13:22.153Z,1.60
2018-08-27T12:16:25.485Z,1.80
2018-08-27T12:19:28.778Z,1.70
2018-08-27T12:22:32.097Z,1.67
2018-08-27T12:25:35.279Z,1.67
2018-08-27T12:28:38.624Z,1.63
2018-08-27T12:31:42.077Z,1.57
2018-08-27T12:34:45.393Z,1.47
2018-08-27T12:37:48.842Z,1.60
2018-08-27T12:40:52.091Z,1.77
2018-08-27T12:43:55.366Z,1.50
2018-08-27T12:46:58.819Z,1.37
2018-08-27T12:50:02.175Z,1.70
2018-08-27T12:53:05.692Z,1.90
2018-08-27T12:56:10.071Z,1.70
2018-08-27T12:59:13.398Z,1.63
2018-08-27T13:02:17.353Z,1.70
2018-08-27T13:05:20.806Z,2.13
2018-08-27T13:08:24.121Z,1.70
2018-08-27T13:11:27.537Z,1.50
2018-08-27T13:14:31.008Z,1.13
2018-08-27T13:17:34.329Z,1.17
2018-08-27T13:20:37.605Z,1.30
2018-08-27T13:23:40.879Z,1.30
2018-08-27T13:26:44.264Z,1.40
2018-08-27T13:29:47.608Z,1.57
2018-08-27T13:32:50.909Z,1.17
2018-08-27T13:35:54.062Z,1.30
2018-08-27T13:38:57.294Z,1.40
2018-08-27T13:42:00.482Z,1.40
2018-08-27T13:45:03.896Z,1.50
2018-08-27T13:48:07.309Z,1.40
2018-08-27T13:51:10.587Z,1.07
2018-08-27T13:54:13.758Z,1.30
2018-08-27T13:57:17.080Z,1.30
2018-08-27T14:00:21.357Z,1.20
2018-08-27T14:03:24.673Z,1.33
2018-08-27T14:06:28.009Z,1.40
2018-08-27T14:09:31.231Z,1.37
2018-08-27T14:12:34.499Z,1.50
2018-08-27T14:15:37.846Z,1.00
2018-08-27T14:18:41.059Z,0.93
2018-08-27T14:21:44.495Z,0.93
2018-08-27T14:24:48.121Z,0.93
2018-08-27T14:27:51.267Z,1.20
2018-08-27T14:30:54.464Z,1.33
2018-08-27T14:33:57.977Z,1.17
2018-08-27T14:37:01.235Z,1.60
2018-08-27T14:40:04.669Z,1.30
2018-08-27T14:43:08.947Z,1.30
2018-08-27T14:46:12.612Z,1.27
2018-08-27T14:49:16.359Z,1.60
2018-08-27T14:52:19.535Z,1.90
2018-08-27T14:55:22.989Z,1.50
2018-08-27T14:58:26.327Z,1.20
2018-08-27T15:01:29.601Z,1.10
2018-08-27T15:04:32.981Z,1.17
2018-08-27T15:07:37.275Z,1.40
2018-08-27T15:10:40.504Z,1.10
2018-08-27T15:13:43.808Z,1.00
2018-08-27T15:16:48.599Z,1.30
2018-08-27T15:19:51.947Z,1.17
2018-08-27T15:22:55.230Z,1.00
2018-08-27T15:25:58.495Z,1.30
2018-08-27T15:29:02.036Z,1.07
2018-08-27T15:32:05.253Z,1.23
2018-08-27T15:35:08.583Z,1.20
2018-08-27T15:38:11.909Z,1.27
2018-08-27T15:41:16.567Z,1.30
2018-08-27T15:44:19.824Z,1.10
2018-08-27T15:47:23.161Z,1.00
2018-08-27T15:50:26.510Z,1.27
2018-08-27T15:53:29.880Z,1.10
2018-08-27T15:56:33.158Z,1.20
2018-08-27T15:59:36.402Z,1.27
2018-08-27T16:02:39.768Z,1.00
2018-08-27T16:05:43.083Z,1.00
2018-08-27T16:08:46.453Z,1.10
2018-08-27T16:11:49.746Z,1.10
2018-08-27T16:14:53.062Z,1.00
2018-08-27T16:17:56.362Z,1.10
2018-08-27T16:20:59.609Z,1.00
2018-08-27T16:24:02.794Z,1.00
2018-08-27T16:27:06.103Z,1.03
2018-08-27T16:30:10.972Z,1.30
2018-08-27T16:33:14.258Z,1.20
2018-08-27T16:36:18.478Z,1.20
2018-08-27T16:39:21.762Z,1.20
2018-08-27T16:42:25.997Z,1.10
2018-08-27T16:45:29.493Z,1.33
2018-08-27T16:48:32.651Z,1.10
2018-08-27T16:51:36.706Z,1.10
2018-08-27T16:54:40.067Z,1.53
2018-08-27T16:57:43.271Z,1.43
2018-08-27T17:00:47.419Z,1.33
2018-08-27T17:03:51.074Z,1.50
2018-08-27T17:06:54.371Z,1.37
2018-08-27T17:09:57.730Z,1.10
2018-08-27T17:13:00.871Z,1.10
2018-08-27T17:16:04.195Z,1.10
2018-08-27T17:19:07.490Z,1.50
2018-08-27T17:22:10.774Z,1.40
2018-08-27T17:25:13.971Z,1.20
2018-08-27T17:28:17.199Z,1.37
2018-08-27T17:31:20.505Z,1.23
2018-08-27T17:34:25.404Z,1.30
2018-08-27T17:37:28.697Z,1.40
2018-08-27T17:40:35.616Z,1.33
2018-08-27T17:43:39.007Z,1.50
2018-08-27T17:46:42.243Z,1.40
2018-08-27T17:49:46.425Z,1.30
2018-08-27T17:52:49.725Z,1.43
2018-08-27T17:55:52.999Z,1.40
2018-08-27T17:58:56.910Z,1.37
2018-08-27T18:02:00.467Z,1.40
2018-08-27T18:05:05.370Z,1.20
2018-08-27T18:08:08.488Z,1.23
2018-08-27T18:11:11.905Z,1.20
2018-08-27T18:14:15.108Z,1.40
2018-08-27T18:17:18.460Z,1.27
2018-08-27T18:20:21.725Z,1.50
2018-08-27T18:23:25.035Z,1.60
2018-08-27T18:26:28.375Z,1.50
2018-08-27T18:29:31.753Z,1.30
2018-08-27T18:32:35.023Z,1.60
2018-08-27T18:35:38.292Z,1.43
2018-08-27T18:38:41.692Z,1.47
2018-08-27T18:41:45.007Z,1.50
2018-08-27T18:44:49.308Z,1.27
2018-08-27T18:47:52.963Z,1.40
2018-08-27T18:50:56.208Z,1.60
2018-08-27T18:53:59.523Z,1.30
2018-08-27T18:57:02.839Z,1.70
2018-08-27T19:00:06.182Z,1.50
2018-08-27T19:03:09.399Z,1.47
2018-08-27T19:06:12.730Z,1.37
2018-08-27T19:09:15.999Z,1.30
2018-08-27T19:12:19.367Z,1.80
2018-08-27T19:15:22.946Z,1.43
2018-08-27T19:18:26.193Z,1.37
2018-08-27T19:21:29.462Z,1.43
2018-08-27T19:24:32.735Z,1.47
2018-08-27T19:27:35.894Z,1.33
2018-08-27T19:30:39.211Z,1.30
2018-08-27T19:33:42.503Z,1.33
2018-08-27T19:36:45.804Z,1.63
2018-08-27T19:39:50.196Z,1.60
2018-08-27T19:42:53.836Z,1.40
2018-08-27T19:45:58.147Z,1.37
2018-08-27T19:49:01.316Z,1.57
2018-08-27T19:52:04.640Z,1.90
2018-08-27T19:55:07.935Z,2.20
2018-08-27T19:58:11.263Z,3.37
2018-08-27T20:01:14.594Z,2.00
2018-08-27T20:04:17.961Z,1.60
2018-08-27T20:07:21.194Z,1.70
2018-08-27T20:10:25.715Z,1.90
2018-08-27T20:13:29.082Z,2.80
2018-08-27T20:16:32.444Z,1.73
2018-08-27T20:19:35.704Z,1.87
2018-08-27T20:22:39.051Z,1.60
2018-08-27T20:25:42.513Z,1.73
2018-08-27T20:28:45.877Z,1.60
2018-08-27T20:31:49.165Z,1.67
2018-08-27T20:34:52.980Z,1.50
2018-08-27T20:37:56.253Z,1.50
2018-08-27T20:40:59.416Z,1.80
2018-08-27T20:44:02.763Z,1.60
2018-08-27T20:47:06.165Z,1.67
2018-08-27T20:50:09.427Z,1.50
2018-08-27T20:53:12.639Z,1.57
2018-08-27T20:56:16.391Z,1.77
2018-08-27T20:59:19.652Z,1.97
2018-08-27T21:02:22.906Z,1.53
2018-08-27T21:05:26.240Z,1.70
2018-08-27T21:08:29.507Z,1.53
2018-08-27T21:11:32.916Z,1.70
2018-08-27T21:14:41.544Z,2.00
2018-08-27T21:17:46.928Z,1.90
2018-08-27T21:20:50.295Z,1.73
2018-08-27T21:23:53.908Z,1.80
2018-08-27T21:26:57.175Z,1.70
2018-08-27T21:30:00.319Z,2.10
2018-08-27T21:33:03.532Z,1.80
2018-08-27T21:36:06.935Z,1.70
2018-08-27T21:39:10.224Z,1.93
2018-08-27T21:42:14.517Z,2.40
2018-08-27T21:45:17.797Z,2.60
2018-08-27T21:48:21.075Z,2.77
2018-08-27T21:51:25.325Z,2.60
2018-08-27T21:54:28.690Z,3.50
2018-08-27T21:57:34.013Z,3.00
2018-08-27T22:00:43.070Z,3.30
2018-08-27T22:03:51.815Z,3.03
2018-08-27T22:06:56.495Z,3.60
2018-08-27T22:10:00.347Z,3.50
2018-08-27T22:13:04.766Z,3.50
2018-08-27T22:16:08.061Z,3.00
2018-08-27T22:19:11.257Z,3.30
2018-08-27T22:22:14.668Z,2.77
2018-08-27T22:25:17.884Z,2.57
2018-08-27T22:28:21.166Z,2.60
2018-08-27T22:31:25.439Z,2.80
2018-08-27T22:34:28.729Z,2.60
2018-08-27T22:37:32.303Z,2.40
2018-08-27T22:40:35.835Z,2.60
2018-08-27T22:43:41.230Z,2.50
2018-08-27T22:46:44.677Z,2.53
2018-08-27T22:49:47.972Z,2.43
2018-08-27T22:52:51.544Z,2.10
2018-08-27T22:55:55.715Z,3.03
2018-08-27T22:58:59.895Z,2.70
2018-08-27T23:02:03.523Z,2.70
2018-08-27T23:05:08.431Z,2.73
2018-08-27T23:08:12.291Z,3.03
2018-08-27T23:11:16.118Z,2.57
2018-08-27T23:14:19.353Z,3.10
2018-08-27T23:17:23.794Z,2.70
2018-08-27T23:20:27.415Z,2.87
2018-08-27T23:23:30.727Z,2.83
2018-08-27T23:26:34.982Z,2.83
2018-08-27T23:29:38.445Z,2.97
2018-08-27T23:32:41.775Z,3.17
2018-08-27T23:35:45.063Z,3.10
2018-08-27T23:38:48.355Z,3.00
2018-08-27T23:41:51.539Z,3.37
2018-08-27T23:44:55.843Z,3.07
2018-08-27T23:47:59.090Z,3.10
2018-08-27T23:51:02.419Z,3.40
2018-08-27T23:54:05.768Z,3.50
2018-08-27T23:57:09.091Z,3.30
